sensor_id;sensor_type;location;lat;lon;timestamp;P1;durP1;ratioP1;P2;durP2;ratioP2
49514;SDS011;35415;47.870;16.058;2022-10-16T00:01:08;1.02;;;0.93;;
49514;SDS011;35415;47.870;16.058;2022-10-16T00:03:37;1.75;;;1.27;;
49514;SDS011;35415;47.870;16.058;2022-10-16T00:06:05;1.17;;;1.08;;
49514;SDS011;35415;47.870;16.058;2022-10-16T00:08:35;2.58;;;1.10;;
49514;SDS011;35415;47.870;16.058;2022-10-16T00:11:03;1.48;;;0.93;;
49514;SDS011;35415;47.870;16.058;2022-10-16T00:13:33;1.10;;;0.93;;
49514;SDS011;35415;47.870;16.058;2022-10-16T00:16:01;3.17;;;1.23;;
49514;SDS011;35415;47.870;16.058;2022-10-16T00:18:28;2.75;;;1.00;;
49514;SDS011;35415;47.870;16.058;2022-10-16T00:20:55;1.25;;;1.13;;
49514;SDS011;35415;47.870;16.058;2022-10-16T00:23:27;1.77;;;1.05;;
49514;SDS011;35415;47.870;16.058;2022-10-16T00:25:56;1.10;;;0.98;;
49514;SDS011;35415;47.870;16.058;2022-10-16T00:28:24;0.80;;;0.80;;
49514;SDS011;35415;47.870;16.058;2022-10-16T00:30:52;2.08;;;0.73;;
49514;SDS011;35415;47.870;16.058;2022-10-16T00:33:20;1.00;;;0.90;;
49514;SDS011;35415;47.870;16.058;2022-10-16T00:35:48;1.55;;;0.90;;
49514;SDS011;35415;47.870;16.058;2022-10-16T00:38:15;1.58;;;1.30;;
49514;SDS011;35415;47.870;16.058;2022-10-16T00:40:42;1.42;;;1.33;;
49514;SDS011;35415;47.870;16.058;2022-10-16T00:43:14;2.85;;;1.88;;
49514;SDS011;35415;47.870;16.058;2022-10-16T00:46:00;1.25;;;1.05;;
49514;SDS011;35415;47.870;16.058;2022-10-16T00:48:29;1.65;;;1.00;;
49514;SDS011;35415;47.870;16.058;2022-10-16T00:50:56;1.13;;;0.80;;
49514;SDS011;35415;47.870;16.058;2022-10-16T00:53:24;0.80;;;0.80;;
49514;SDS011;35415;47.870;16.058;2022-10-16T00:55:52;2.15;;;0.70;;
49514;SDS011;35415;47.870;16.058;2022-10-16T00:58:21;1.77;;;1.00;;
49514;SDS011;35415;47.870;16.058;2022-10-16T01:00:48;0.80;;;0.80;;
49514;SDS011;35415;47.870;16.058;2022-10-16T01:03:22;1.55;;;1.23;;
49514;SDS011;35415;47.870;16.058;2022-10-16T01:05:53;3.13;;;1.10;;
49514;SDS011;35415;47.870;16.058;2022-10-16T01:08:34;1.10;;;1.00;;
49514;SDS011;35415;47.870;16.058;2022-10-16T01:11:12;3.17;;;1.20;;
49514;SDS011;35415;47.870;16.058;2022-10-16T01:13:48;1.08;;;0.88;;
49514;SDS011;35415;47.870;16.058;2022-10-16T01:16:22;1.10;;;1.00;;
49514;SDS011;35415;47.870;16.058;2022-10-16T01:18:57;2.03;;;1.00;;
49514;SDS011;35415;47.870;16.058;2022-10-16T01:21:29;3.05;;;0.65;;
49514;SDS011;35415;47.870;16.058;2022-10-16T01:24:01;0.70;;;0.70;;
49514;SDS011;35415;47.870;16.058;2022-10-16T01:26:36;1.60;;;1.23;;
49514;SDS011;35415;47.870;16.058;2022-10-16T01:29:18;2.50;;;1.00;;
49514;SDS011;35415;47.870;16.058;2022-10-16T01:31:52;1.00;;;0.85;;
49514;SDS011;35415;47.870;16.058;2022-10-16T01:34:28;1.70;;;1.23;;
49514;SDS011;35415;47.870;16.058;2022-10-16T01:37:02;1.80;;;1.52;;
49514;SDS011;35415;47.870;16.058;2022-10-16T01:39:33;1.60;;;1.27;;
49514;SDS011;35415;47.870;16.058;2022-10-16T01:42:06;1.10;;;1.00;;
49514;SDS011;35415;47.870;16.058;2022-10-16T01:44:37;0.85;;;0.80;;
49514;SDS011;35415;47.870;16.058;2022-10-16T01:47:06;1.15;;;0.93;;
49514;SDS011;35415;47.870;16.058;2022-10-16T01:49:37;1.02;;;0.93;;
49514;SDS011;35415;47.870;16.058;2022-10-16T01:52:08;1.35;;;0.70;;
49514;SDS011;35415;47.870;16.058;2022-10-16T01:54:39;1.50;;;0.80;;
49514;SDS011;35415;47.870;16.058;2022-10-16T01:57:09;1.15;;;0.80;;
49514;SDS011;35415;47.870;16.058;2022-10-16T01:59:42;0.80;;;0.80;;
49514;SDS011;35415;47.870;16.058;2022-10-16T02:02:12;0.60;;;0.60;;
49514;SDS011;35415;47.870;16.058;2022-10-16T02:04:42;1.75;;;0.85;;
49514;SDS011;35415;47.870;16.058;2022-10-16T02:07:12;0.57;;;0.57;;
49514;SDS011;35415;47.870;16.058;2022-10-16T02:09:40;1.20;;;1.10;;
49514;SDS011;35415;47.870;16.058;2022-10-16T02:12:08;1.38;;;0.80;;
49514;SDS011;35415;47.870;16.058;2022-10-16T02:14:38;1.00;;;0.73;;
49514;SDS011;35415;47.870;16.058;2022-10-16T02:17:11;3.67;;;0.93;;
49514;SDS011;35415;47.870;16.058;2022-10-16T02:19:39;0.65;;;0.65;;
49514;SDS011;35415;47.870;16.058;2022-10-16T02:22:11;0.80;;;0.80;;
49514;SDS011;35415;47.870;16.058;2022-10-16T02:24:42;1.60;;;0.82;;
49514;SDS011;35415;47.870;16.058;2022-10-16T02:27:19;1.17;;;0.82;;
49514;SDS011;35415;47.870;16.058;2022-10-16T02:29:53;0.57;;;0.57;;
49514;SDS011;35415;47.870;16.058;2022-10-16T02:32:33;0.70;;;0.70;;
49514;SDS011;35415;47.870;16.058;2022-10-16T02:35:02;0.60;;;0.60;;
49514;SDS011;35415;47.870;16.058;2022-10-16T02:37:30;1.10;;;0.70;;
49514;SDS011;35415;47.870;16.058;2022-10-16T02:39:59;0.50;;;0.50;;
49514;SDS011;35415;47.870;16.058;2022-10-16T02:42:28;0.80;;;0.80;;
49514;SDS011;35415;47.870;16.058;2022-10-16T02:44:57;1.35;;;1.25;;
49514;SDS011;35415;47.870;16.058;2022-10-16T02:47:24;0.57;;;0.57;;
49514;SDS011;35415;47.870;16.058;2022-10-16T02:49:51;1.00;;;0.60;;
49514;SDS011;35415;47.870;16.058;2022-10-16T02:52:18;0.93;;;0.90;;
49514;SDS011;35415;47.870;16.058;2022-10-16T02:54:45;1.88;;;0.90;;
49514;SDS011;35415;47.870;16.058;2022-10-16T02:57:12;1.50;;;0.70;;
49514;SDS011;35415;47.870;16.058;2022-10-16T02:59:39;0.70;;;0.68;;
49514;SDS011;35415;47.870;16.058;2022-10-16T03:02:08;1.02;;;0.73;;
49514;SDS011;35415;47.870;16.058;2022-10-16T03:04:35;0.80;;;0.70;;
49514;SDS011;35415;47.870;16.058;2022-10-16T03:07:03;0.82;;;0.60;;
49514;SDS011;35415;47.870;16.058;2022-10-16T03:09:30;1.10;;;1.00;;
49514;SDS011;35415;47.870;16.058;2022-10-16T03:11:57;0.57;;;0.57;;
49514;SDS011;35415;47.870;16.058;2022-10-16T03:14:24;0.90;;;0.70;;
49514;SDS011;35415;47.870;16.058;2022-10-16T03:16:51;0.93;;;0.60;;
49514;SDS011;35415;47.870;16.058;2022-10-16T03:19:20;0.75;;;0.60;;
49514;SDS011;35415;47.870;16.058;2022-10-16T03:21:47;3.13;;;0.85;;
49514;SDS011;35415;47.870;16.058;2022-10-16T03:24:14;0.90;;;0.70;;
49514;SDS011;35415;47.870;16.058;2022-10-16T03:26:41;1.95;;;0.80;;
49514;SDS011;35415;47.870;16.058;2022-10-16T03:29:08;3.70;;;0.80;;
49514;SDS011;35415;47.870;16.058;2022-10-16T03:31:35;0.75;;;0.70;;
49514;SDS011;35415;47.870;16.058;2022-10-16T03:34:02;1.92;;;0.90;;
49514;SDS011;35415;47.870;16.058;2022-10-16T03:36:31;0.80;;;0.80;;
49514;SDS011;35415;47.870;16.058;2022-10-16T03:38:58;0.63;;;0.63;;
49514;SDS011;35415;47.870;16.058;2022-10-16T03:41:25;2.58;;;0.95;;
49514;SDS011;35415;47.870;16.058;2022-10-16T03:43:52;0.88;;;0.88;;
49514;SDS011;35415;47.870;16.058;2022-10-16T03:46:19;1.90;;;1.00;;
49514;SDS011;35415;47.870;16.058;2022-10-16T03:48:46;1.55;;;1.45;;
49514;SDS011;35415;47.870;16.058;2022-10-16T03:51:13;1.90;;;1.80;;
49514;SDS011;35415;47.870;16.058;2022-10-16T03:53:41;1.40;;;1.27;;
49514;SDS011;35415;47.870;16.058;2022-10-16T03:56:08;2.25;;;0.93;;
49514;SDS011;35415;47.870;16.058;2022-10-16T03:58:35;0.88;;;0.73;;
49514;SDS011;35415;47.870;16.058;2022-10-16T04:01:02;0.73;;;0.73;;
49514;SDS011;35415;47.870;16.058;2022-10-16T04:03:29;0.82;;;0.70;;
49514;SDS011;35415;47.870;16.058;2022-10-16T04:05:56;1.08;;;0.82;;
49514;SDS011;35415;47.870;16.058;2022-10-16T04:08:24;0.90;;;0.68;;
49514;SDS011;35415;47.870;16.058;2022-10-16T04:10:52;1.70;;;0.80;;
49514;SDS011;35415;47.870;16.058;2022-10-16T04:13:19;1.25;;;0.90;;
49514;SDS011;35415;47.870;16.058;2022-10-16T04:15:46;0.90;;;0.80;;
49514;SDS011;35415;47.870;16.058;2022-10-16T04:18:13;0.75;;;0.70;;
49514;SDS011;35415;47.870;16.058;2022-10-16T04:20:40;0.73;;;0.70;;
49514;SDS011;35415;47.870;16.058;2022-10-16T04:23:07;0.95;;;0.70;;
49514;SDS011;35415;47.870;16.058;2022-10-16T04:25:34;0.70;;;0.70;;
49514;SDS011;35415;47.870;16.058;2022-10-16T04:28:03;0.57;;;0.57;;
49514;SDS011;35415;47.870;16.058;2022-10-16T04:30:30;0.65;;;0.65;;
49514;SDS011;35415;47.870;16.058;2022-10-16T04:32:58;3.00;;;0.70;;
49514;SDS011;35415;47.870;16.058;2022-10-16T04:35:26;0.70;;;0.70;;
49514;SDS011;35415;47.870;16.058;2022-10-16T04:37:53;0.82;;;0.65;;
49514;SDS011;35415;47.870;16.058;2022-10-16T04:40:20;0.82;;;0.60;;
49514;SDS011;35415;47.870;16.058;2022-10-16T04:42:47;1.30;;;1.00;;
49514;SDS011;35415;47.870;16.058;2022-10-16T04:45:17;0.60;;;0.60;;
49514;SDS011;35415;47.870;16.058;2022-10-16T04:47:44;1.02;;;0.90;;
49514;SDS011;35415;47.870;16.058;2022-10-16T04:50:11;1.00;;;0.73;;
49514;SDS011;35415;47.870;16.058;2022-10-16T04:52:38;0.95;;;0.85;;
49514;SDS011;35415;47.870;16.058;2022-10-16T04:55:05;0.82;;;0.80;;
49514;SDS011;35415;47.870;16.058;2022-10-16T04:57:33;0.90;;;0.90;;
49514;SDS011;35415;47.870;16.058;2022-10-16T05:00:00;2.05;;;1.02;;
49514;SDS011;35415;47.870;16.058;2022-10-16T05:02:29;0.70;;;0.70;;
49514;SDS011;35415;47.870;16.058;2022-10-16T05:04:56;1.45;;;1.05;;
49514;SDS011;35415;47.870;16.058;2022-10-16T05:07:23;1.48;;;0.90;;
49514;SDS011;35415;47.870;16.058;2022-10-16T05:09:50;1.55;;;0.93;;
49514;SDS011;35415;47.870;16.058;2022-10-16T05:12:18;1.85;;;0.73;;
49514;SDS011;35415;47.870;16.058;2022-10-16T05:14:45;1.15;;;0.88;;
49514;SDS011;35415;47.870;16.058;2022-10-16T05:17:12;1.88;;;0.90;;
49514;SDS011;35415;47.870;16.058;2022-10-16T05:19:42;1.95;;;0.98;;
49514;SDS011;35415;47.870;16.058;2022-10-16T05:22:09;0.98;;;0.80;;
49514;SDS011;35415;47.870;16.058;2022-10-16T05:24:36;3.22;;;1.13;;
49514;SDS011;35415;47.870;16.058;2022-10-16T05:27:03;1.33;;;1.15;;
49514;SDS011;35415;47.870;16.058;2022-10-16T05:29:30;1.40;;;0.95;;
49514;SDS011;35415;47.870;16.058;2022-10-16T05:31:57;0.98;;;0.82;;
49514;SDS011;35415;47.870;16.058;2022-10-16T05:34:24;1.80;;;1.35;;
49514;SDS011;35415;47.870;16.058;2022-10-16T05:36:53;1.70;;;1.00;;
49514;SDS011;35415;47.870;16.058;2022-10-16T05:39:20;2.05;;;0.90;;
49514;SDS011;35415;47.870;16.058;2022-10-16T05:41:49;1.17;;;0.88;;
49514;SDS011;35415;47.870;16.058;2022-10-16T05:44:17;1.67;;;1.10;;
49514;SDS011;35415;47.870;16.058;2022-10-16T05:46:45;1.15;;;0.90;;
49514;SDS011;35415;47.870;16.058;2022-10-16T05:49:12;1.10;;;0.80;;
49514;SDS011;35415;47.870;16.058;2022-10-16T05:51:40;3.33;;;1.33;;
49514;SDS011;35415;47.870;16.058;2022-10-16T05:54:09;1.00;;;0.90;;
49514;SDS011;35415;47.870;16.058;2022-10-16T05:56:36;1.23;;;0.90;;
49514;SDS011;35415;47.870;16.058;2022-10-16T05:59:03;1.02;;;0.90;;
49514;SDS011;35415;47.870;16.058;2022-10-16T06:01:30;1.17;;;0.90;;
49514;SDS011;35415;47.870;16.058;2022-10-16T06:03:57;2.65;;;1.20;;
49514;SDS011;35415;47.870;16.058;2022-10-16T06:06:26;3.28;;;1.15;;
49514;SDS011;35415;47.870;16.058;2022-10-16T06:08:55;1.20;;;1.10;;
49514;SDS011;35415;47.870;16.058;2022-10-16T06:11:25;1.83;;;1.20;;
49514;SDS011;35415;47.870;16.058;2022-10-16T06:13:53;1.88;;;1.30;;
49514;SDS011;35415;47.870;16.058;2022-10-16T06:16:22;2.17;;;1.40;;
49514;SDS011;35415;47.870;16.058;2022-10-16T06:18:50;3.20;;;1.50;;
49514;SDS011;35415;47.870;16.058;2022-10-16T06:21:18;2.63;;;1.60;;
49514;SDS011;35415;47.870;16.058;2022-10-16T06:23:47;3.13;;;1.60;;
49514;SDS011;35415;47.870;16.058;2022-10-16T06:26:15;3.05;;;2.63;;
49514;SDS011;35415;47.870;16.058;2022-10-16T06:28:45;1.85;;;1.30;;
49514;SDS011;35415;47.870;16.058;2022-10-16T06:31:13;4.10;;;2.05;;
49514;SDS011;35415;47.870;16.058;2022-10-16T06:33:40;1.58;;;1.23;;
49514;SDS011;35415;47.870;16.058;2022-10-16T06:36:08;1.70;;;1.38;;
49514;SDS011;35415;47.870;16.058;2022-10-16T06:38:36;1.73;;;1.27;;
49514;SDS011;35415;47.870;16.058;2022-10-16T06:41:05;2.25;;;1.92;;
49514;SDS011;35415;47.870;16.058;2022-10-16T06:43:33;1.73;;;1.63;;
49514;SDS011;35415;47.870;16.058;2022-10-16T06:46:03;2.65;;;1.40;;
49514;SDS011;35415;47.870;16.058;2022-10-16T06:48:32;1.35;;;1.20;;
49514;SDS011;35415;47.870;16.058;2022-10-16T06:51:00;2.58;;;1.40;;
49514;SDS011;35415;47.870;16.058;2022-10-16T06:53:31;1.75;;;1.20;;
49514;SDS011;35415;47.870;16.058;2022-10-16T06:56:06;1.50;;;1.27;;
49514;SDS011;35415;47.870;16.058;2022-10-16T06:58:33;1.77;;;1.27;;
49514;SDS011;35415;47.870;16.058;2022-10-16T07:01:00;1.80;;;1.30;;
49514;SDS011;35415;47.870;16.058;2022-10-16T07:03:29;2.10;;;1.35;;
49514;SDS011;35415;47.870;16.058;2022-10-16T07:05:56;2.15;;;1.50;;
49514;SDS011;35415;47.870;16.058;2022-10-16T07:08:23;3.22;;;1.30;;
49514;SDS011;35415;47.870;16.058;2022-10-16T07:10:57;1.88;;;1.50;;
49514;SDS011;35415;47.870;16.058;2022-10-16T07:13:25;1.73;;;1.27;;
49514;SDS011;35415;47.870;16.058;2022-10-16T07:15:52;2.05;;;1.45;;
49514;SDS011;35415;47.870;16.058;2022-10-16T07:18:19;1.27;;;1.15;;
49514;SDS011;35415;47.870;16.058;2022-10-16T07:20:47;1.10;;;1.00;;
49514;SDS011;35415;47.870;16.058;2022-10-16T07:23:14;1.30;;;1.10;;
49514;SDS011;35415;47.870;16.058;2022-10-16T07:25:41;4.72;;;1.45;;
49514;SDS011;35415;47.870;16.058;2022-10-16T07:28:08;2.20;;;1.65;;
49514;SDS011;35415;47.870;16.058;2022-10-16T07:30:35;1.45;;;1.33;;
49514;SDS011;35415;47.870;16.058;2022-10-16T07:33:03;3.22;;;1.52;;
49514;SDS011;35415;47.870;16.058;2022-10-16T07:35:30;1.73;;;1.27;;
49514;SDS011;35415;47.870;16.058;2022-10-16T07:37:59;1.58;;;1.17;;
49514;SDS011;35415;47.870;16.058;2022-10-16T07:40:26;1.67;;;1.20;;
49514;SDS011;35415;47.870;16.058;2022-10-16T07:42:53;1.67;;;1.42;;
49514;SDS011;35415;47.870;16.058;2022-10-16T07:45:20;2.97;;;1.60;;
49514;SDS011;35415;47.870;16.058;2022-10-16T07:47:49;2.75;;;2.00;;
49514;SDS011;35415;47.870;16.058;2022-10-16T07:50:16;3.30;;;2.00;;
49514;SDS011;35415;47.870;16.058;2022-10-16T07:52:43;3.70;;;1.40;;
49514;SDS011;35415;47.870;16.058;2022-10-16T07:55:11;5.97;;;2.28;;
49514;SDS011;35415;47.870;16.058;2022-10-16T07:57:39;3.33;;;2.30;;
49514;SDS011;35415;47.870;16.058;2022-10-16T08:00:07;2.53;;;1.80;;
49514;SDS011;35415;47.870;16.058;2022-10-16T08:05:06;2.50;;;1.52;;
49514;SDS011;35415;47.870;16.058;2022-10-16T08:07:33;1.45;;;1.30;;
49514;SDS011;35415;47.870;16.058;2022-10-16T08:10:00;1.52;;;1.27;;
49514;SDS011;35415;47.870;16.058;2022-10-16T08:12:30;3.22;;;1.80;;
49514;SDS011;35415;47.870;16.058;2022-10-16T08:14:57;3.08;;;1.50;;
49514;SDS011;35415;47.870;16.058;2022-10-16T08:17:24;1.83;;;1.40;;
49514;SDS011;35415;47.870;16.058;2022-10-16T08:19:51;2.90;;;1.60;;
49514;SDS011;35415;47.870;16.058;2022-10-16T08:22:18;1.38;;;1.27;;
49514;SDS011;35415;47.870;16.058;2022-10-16T08:24:45;2.38;;;1.60;;
49514;SDS011;35415;47.870;16.058;2022-10-16T08:27:12;2.10;;;1.85;;
49514;SDS011;35415;47.870;16.058;2022-10-16T08:29:40;2.22;;;1.50;;
49514;SDS011;35415;47.870;16.058;2022-10-16T08:32:07;2.47;;;1.50;;
49514;SDS011;35415;47.870;16.058;2022-10-16T08:34:34;2.25;;;1.60;;
49514;SDS011;35415;47.870;16.058;2022-10-16T08:37:01;2.65;;;2.03;;
49514;SDS011;35415;47.870;16.058;2022-10-16T08:39:28;2.55;;;1.90;;
49514;SDS011;35415;47.870;16.058;2022-10-16T08:41:59;2.08;;;1.77;;
49514;SDS011;35415;47.870;16.058;2022-10-16T08:44:57;2.85;;;1.80;;
49514;SDS011;35415;47.870;16.058;2022-10-16T08:47:39;1.70;;;1.38;;
49514;SDS011;35415;47.870;16.058;2022-10-16T08:50:17;3.47;;;1.70;;
49514;SDS011;35415;47.870;16.058;2022-10-16T08:52:49;1.90;;;1.65;;
49514;SDS011;35415;47.870;16.058;2022-10-16T08:55:19;1.75;;;1.60;;
49514;SDS011;35415;47.870;16.058;2022-10-16T08:58:09;1.90;;;1.60;;
49514;SDS011;35415;47.870;16.058;2022-10-16T09:00:40;2.42;;;1.60;;
49514;SDS011;35415;47.870;16.058;2022-10-16T09:03:11;2.20;;;1.60;;
49514;SDS011;35415;47.870;16.058;2022-10-16T09:05:52;1.95;;;1.60;;
49514;SDS011;35415;47.870;16.058;2022-10-16T09:08:30;3.63;;;1.75;;
49514;SDS011;35415;47.870;16.058;2022-10-16T09:11:03;2.05;;;1.55;;
49514;SDS011;35415;47.870;16.058;2022-10-16T09:13:40;2.97;;;1.77;;
49514;SDS011;35415;47.870;16.058;2022-10-16T09:16:17;2.08;;;1.60;;
49514;SDS011;35415;47.870;16.058;2022-10-16T09:18:51;2.95;;;1.77;;
49514;SDS011;35415;47.870;16.058;2022-10-16T09:21:25;2.58;;;1.80;;
49514;SDS011;35415;47.870;16.058;2022-10-16T09:23:57;2.95;;;1.70;;
49514;SDS011;35415;47.870;16.058;2022-10-16T09:26:30;5.88;;;1.70;;
49514;SDS011;35415;47.870;16.058;2022-10-16T09:28:57;3.00;;;1.83;;
49514;SDS011;35415;47.870;16.058;2022-10-16T09:31:26;5.18;;;2.25;;
49514;SDS011;35415;47.870;16.058;2022-10-16T09:33:54;5.45;;;2.50;;
49514;SDS011;35415;47.870;16.058;2022-10-16T09:36:25;2.40;;;2.03;;
49514;SDS011;35415;47.870;16.058;2022-10-16T09:39:02;4.40;;;3.20;;
49514;SDS011;35415;47.870;16.058;2022-10-16T09:41:30;6.20;;;3.38;;
49514;SDS011;35415;47.870;16.058;2022-10-16T09:44:01;9.30;;;3.90;;
49514;SDS011;35415;47.870;16.058;2022-10-16T09:46:32;5.75;;;4.80;;
49514;SDS011;35415;47.870;16.058;2022-10-16T09:49:01;7.45;;;4.80;;
49514;SDS011;35415;47.870;16.058;2022-10-16T09:51:30;8.25;;;5.93;;
49514;SDS011;35415;47.870;16.058;2022-10-16T09:54:01;8.73;;;5.72;;
49514;SDS011;35415;47.870;16.058;2022-10-16T09:56:39;8.65;;;5.72;;
49514;SDS011;35415;47.870;16.058;2022-10-16T09:59:08;8.55;;;6.32;;
49514;SDS011;35415;47.870;16.058;2022-10-16T10:01:39;10.73;;;7.82;;
49514;SDS011;35415;47.870;16.058;2022-10-16T10:04:08;8.38;;;6.93;;
49514;SDS011;35415;47.870;16.058;2022-10-16T10:06:35;9.45;;;6.95;;
49514;SDS011;35415;47.870;16.058;2022-10-16T10:09:05;11.07;;;8.10;;
49514;SDS011;35415;47.870;16.058;2022-10-16T10:11:41;12.75;;;9.70;;
49514;SDS011;35415;47.870;16.058;2022-10-16T10:14:21;11.98;;;8.85;;
49514;SDS011;35415;47.870;16.058;2022-10-16T10:17:07;11.40;;;9.30;;
49514;SDS011;35415;47.870;16.058;2022-10-16T10:19:38;16.58;;;12.52;;
49514;SDS011;35415;47.870;16.058;2022-10-16T10:22:15;18.08;;;12.40;;
49514;SDS011;35415;47.870;16.058;2022-10-16T10:24:56;19.10;;;12.48;;
49514;SDS011;35415;47.870;16.058;2022-10-16T10:27:39;16.83;;;13.07;;
49514;SDS011;35415;47.870;16.058;2022-10-16T10:30:18;17.95;;;13.18;;
49514;SDS011;35415;47.870;16.058;2022-10-16T10:32:54;17.45;;;13.75;;
49514;SDS011;35415;47.870;16.058;2022-10-16T10:35:38;21.48;;;14.52;;
49514;SDS011;35415;47.870;16.058;2022-10-16T10:38:17;22.27;;;14.80;;
49514;SDS011;35415;47.870;16.058;2022-10-16T10:40:57;19.27;;;14.25;;
49514;SDS011;35415;47.870;16.058;2022-10-16T10:43:39;18.83;;;14.88;;
49514;SDS011;35415;47.870;16.058;2022-10-16T10:46:18;20.85;;;15.50;;
49514;SDS011;35415;47.870;16.058;2022-10-16T10:49:00;22.67;;;17.05;;
49514;SDS011;35415;47.870;16.058;2022-10-16T10:51:40;19.02;;;14.07;;
49514;SDS011;35415;47.870;16.058;2022-10-16T10:54:20;21.20;;;15.20;;
49514;SDS011;35415;47.870;16.058;2022-10-16T10:56:56;23.83;;;15.07;;
49514;SDS011;35415;47.870;16.058;2022-10-16T10:59:38;18.27;;;13.73;;
49514;SDS011;35415;47.870;16.058;2022-10-16T11:02:23;17.95;;;13.32;;
49514;SDS011;35415;47.870;16.058;2022-10-16T11:05:05;17.58;;;13.07;;
49514;SDS011;35415;47.870;16.058;2022-10-16T11:07:47;22.08;;;15.48;;
49514;SDS011;35415;47.870;16.058;2022-10-16T11:10:20;21.30;;;15.55;;
49514;SDS011;35415;47.870;16.058;2022-10-16T11:12:50;21.45;;;15.55;;
49514;SDS011;35415;47.870;16.058;2022-10-16T11:15:23;21.45;;;15.50;;
49514;SDS011;35415;47.870;16.058;2022-10-16T11:17:55;22.90;;;16.45;;
49514;SDS011;35415;47.870;16.058;2022-10-16T11:20:31;20.98;;;16.25;;
49514;SDS011;35415;47.870;16.058;2022-10-16T11:23:02;25.42;;;17.05;;
49514;SDS011;35415;47.870;16.058;2022-10-16T11:25:37;25.63;;;19.20;;
49514;SDS011;35415;47.870;16.058;2022-10-16T11:28:07;27.42;;;21.63;;
49514;SDS011;35415;47.870;16.058;2022-10-16T11:30:41;31.30;;;19.73;;
49514;SDS011;35415;47.870;16.058;2022-10-16T11:33:22;23.55;;;17.48;;
49514;SDS011;35415;47.870;16.058;2022-10-16T11:35:59;24.52;;;17.00;;
49514;SDS011;35415;47.870;16.058;2022-10-16T11:38:30;23.17;;;16.55;;
49514;SDS011;35415;47.870;16.058;2022-10-16T11:41:04;27.08;;;17.63;;
49514;SDS011;35415;47.870;16.058;2022-10-16T11:43:40;24.27;;;16.27;;
49514;SDS011;35415;47.870;16.058;2022-10-16T11:46:16;24.50;;;14.90;;
49514;SDS011;35415;47.870;16.058;2022-10-16T11:48:48;30.73;;;16.77;;
49514;SDS011;35415;47.870;16.058;2022-10-16T11:51:24;20.15;;;15.05;;
49514;SDS011;35415;47.870;16.058;2022-10-16T11:53:56;24.67;;;16.55;;
49514;SDS011;35415;47.870;16.058;2022-10-16T11:56:28;26.23;;;17.73;;
49514;SDS011;35415;47.870;16.058;2022-10-16T11:58:58;22.55;;;16.95;;
49514;SDS011;35415;47.870;16.058;2022-10-16T12:01:31;25.23;;;17.27;;
49514;SDS011;35415;47.870;16.058;2022-10-16T12:04:12;25.52;;;18.45;;
49514;SDS011;35415;47.870;16.058;2022-10-16T12:06:48;27.40;;;19.95;;
49514;SDS011;35415;47.870;16.058;2022-10-16T12:09:21;28.10;;;19.20;;
49514;SDS011;35415;47.870;16.058;2022-10-16T12:11:52;27.75;;;20.27;;
49514;SDS011;35415;47.870;16.058;2022-10-16T12:17:22;31.30;;;21.17;;
49514;SDS011;35415;47.870;16.058;2022-10-16T12:20:12;29.38;;;21.55;;
49514;SDS011;35415;47.870;16.058;2022-10-16T12:22:50;33.65;;;22.73;;
49514;SDS011;35415;47.870;16.058;2022-10-16T12:25:21;31.83;;;21.52;;
49514;SDS011;35415;47.870;16.058;2022-10-16T12:28:00;33.88;;;23.23;;
49514;SDS011;35415;47.870;16.058;2022-10-16T12:30:31;31.73;;;22.95;;
49514;SDS011;35415;47.870;16.058;2022-10-16T12:33:04;32.55;;;21.52;;
49514;SDS011;35415;47.870;16.058;2022-10-16T12:35:53;31.70;;;20.50;;
49514;SDS011;35415;47.870;16.058;2022-10-16T12:38:26;31.58;;;18.90;;
49514;SDS011;35415;47.870;16.058;2022-10-16T12:40:55;26.90;;;20.25;;
49514;SDS011;35415;47.870;16.058;2022-10-16T12:43:27;29.98;;;19.45;;
49514;SDS011;35415;47.870;16.058;2022-10-16T12:46:04;25.35;;;19.40;;
49514;SDS011;35415;47.870;16.058;2022-10-16T12:48:47;28.23;;;20.67;;
49514;SDS011;35415;47.870;16.058;2022-10-16T12:51:22;28.92;;;20.48;;
49514;SDS011;35415;47.870;16.058;2022-10-16T12:54:02;26.70;;;19.00;;
49514;SDS011;35415;47.870;16.058;2022-10-16T12:56:34;24.42;;;19.25;;
49514;SDS011;35415;47.870;16.058;2022-10-16T12:59:14;30.83;;;20.48;;
49514;SDS011;35415;47.870;16.058;2022-10-16T13:01:55;24.50;;;18.50;;
49514;SDS011;35415;47.870;16.058;2022-10-16T13:07:52;24.73;;;17.90;;
49514;SDS011;35415;47.870;16.058;2022-10-16T13:10:31;25.65;;;19.52;;
49514;SDS011;35415;47.870;16.058;2022-10-16T13:13:16;25.05;;;19.85;;
49514;SDS011;35415;47.870;16.058;2022-10-16T13:16:02;29.23;;;20.92;;
49514;SDS011;35415;47.870;16.058;2022-10-16T13:18:43;27.20;;;20.77;;
49514;SDS011;35415;47.870;16.058;2022-10-16T13:21:25;28.25;;;20.92;;
49514;SDS011;35415;47.870;16.058;2022-10-16T13:24:03;28.88;;;21.40;;
49514;SDS011;35415;47.870;16.058;2022-10-16T13:26:46;29.15;;;21.45;;
49514;SDS011;35415;47.870;16.058;2022-10-16T13:29:20;26.80;;;19.73;;
49514;SDS011;35415;47.870;16.058;2022-10-16T13:31:48;29.58;;;20.75;;
49514;SDS011;35415;47.870;16.058;2022-10-16T13:34:16;27.33;;;20.63;;
49514;SDS011;35415;47.870;16.058;2022-10-16T13:36:47;31.85;;;21.35;;
49514;SDS011;35415;47.870;16.058;2022-10-16T13:39:20;28.80;;;21.67;;
49514;SDS011;35415;47.870;16.058;2022-10-16T13:42:00;26.40;;;19.90;;
49514;SDS011;35415;47.870;16.058;2022-10-16T13:44:31;29.35;;;20.88;;
49514;SDS011;35415;47.870;16.058;2022-10-16T13:47:03;29.63;;;20.80;;
49514;SDS011;35415;47.870;16.058;2022-10-16T13:49:30;31.92;;;19.92;;
49514;SDS011;35415;47.870;16.058;2022-10-16T13:51:58;26.13;;;19.58;;
49514;SDS011;35415;47.870;16.058;2022-10-16T13:54:26;27.08;;;20.67;;
49514;SDS011;35415;47.870;16.058;2022-10-16T13:56:56;34.83;;;21.67;;
49514;SDS011;35415;47.870;16.058;2022-10-16T13:59:34;28.15;;;20.52;;
49514;SDS011;35415;47.870;16.058;2022-10-16T14:02:05;35.33;;;21.90;;
49514;SDS011;35415;47.870;16.058;2022-10-16T14:04:44;32.33;;;21.55;;
49514;SDS011;35415;47.870;16.058;2022-10-16T14:07:13;28.70;;;21.25;;
49514;SDS011;35415;47.870;16.058;2022-10-16T14:09:47;27.38;;;20.35;;
49514;SDS011;35415;47.870;16.058;2022-10-16T14:12:16;24.05;;;17.92;;
49514;SDS011;35415;47.870;16.058;2022-10-16T14:14:46;25.55;;;20.13;;
49514;SDS011;35415;47.870;16.058;2022-10-16T14:17:18;27.95;;;20.33;;
49514;SDS011;35415;47.870;16.058;2022-10-16T14:19:49;23.98;;;18.52;;
49514;SDS011;35415;47.870;16.058;2022-10-16T14:22:22;25.05;;;19.23;;
49514;SDS011;35415;47.870;16.058;2022-10-16T14:24:54;22.98;;;17.80;;
49514;SDS011;35415;47.870;16.058;2022-10-16T14:27:24;23.95;;;18.35;;
49514;SDS011;35415;47.870;16.058;2022-10-16T14:30:07;24.85;;;18.33;;
49514;SDS011;35415;47.870;16.058;2022-10-16T14:32:40;27.02;;;18.38;;
49514;SDS011;35415;47.870;16.058;2022-10-16T14:35:22;23.65;;;18.45;;
49514;SDS011;35415;47.870;16.058;2022-10-16T14:37:51;23.25;;;17.73;;
49514;SDS011;35415;47.870;16.058;2022-10-16T14:40:19;22.85;;;16.65;;
49514;SDS011;35415;47.870;16.058;2022-10-16T14:42:49;26.80;;;19.05;;
49514;SDS011;35415;47.870;16.058;2022-10-16T14:45:20;25.27;;;18.13;;
49514;SDS011;35415;47.870;16.058;2022-10-16T14:47:50;27.02;;;18.50;;
49514;SDS011;35415;47.870;16.058;2022-10-16T14:50:18;25.60;;;18.13;;
49514;SDS011;35415;47.870;16.058;2022-10-16T14:52:46;24.15;;;17.33;;
49514;SDS011;35415;47.870;16.058;2022-10-16T14:55:14;24.33;;;19.10;;
49514;SDS011;35415;47.870;16.058;2022-10-16T14:57:42;23.92;;;17.05;;